Impacts METAR Board
IDs:

KAXH - Houston/SW Arpt, TX, US

Updated at: 1300 UTC 14 Dec 2019
Potential Impact None Slight Moderate High
Time 14/01Z 14/02Z 14/03Z 14/04Z 14/05Z 14/06Z 14/07Z 14/08Z 14/09Z 14/10Z 14/11Z 14/12Z 14/13Z
Temp62 57 53 52 50 47 46 46 45 42 42 41 41
Dewpt50 50 50 51 49 46 46 46 45 42 42 41 41
Altim29.83 29.85 29.86 29.87 29.88 29.88 29.88 29.88 29.87 29.87 29.86 29.87 29.89
VIS10 10 10 10 10 10 10 10 10 2 10 7 7
CIG-- -- -- -- -- -- -- -- -- -- -- -- --
CoverCLRCLRCLRCLRCLRCLRCLRCLRCLRCLRCLRCLRCLR
FltCatVFRVFRVFRVFRVFRVFRVFRVFRVFRIFRVFRVFRVFR
WX------------------BR------
WDir0000000000000
WSpd0 0 0 0 0 0 0 0 0 0 0 0 0
WGst-- -- -- -- -- -- -- -- -- -- -- -- --
Raw hourly METARs
KAXH 140055Z AUTO 00000KT 10SM CLR 17/10 A2983 RMK AO2 T01690099
KAXH 140155Z AUTO 00000KT 10SM CLR 14/10 A2985 RMK AO2 T01380098
KAXH 140255Z AUTO 00000KT 10SM CLR 12/10 A2986 RMK AO2 T01150098
KAXH 140355Z AUTO 00000KT 10SM CLR 11/11 A2987 RMK AO2 T01110108
KAXH 140455Z AUTO 00000KT 10SM CLR 10/09 A2988 RMK AO2 T00980092
KAXH 140555Z AUTO 00000KT 10SM CLR 08/08 A2988 RMK AO2 T00810076 10191 20081
KAXH 140655Z AUTO 00000KT 10SM CLR 08/08 A2988 RMK AO2 T00780078
KAXH 140755Z AUTO 00000KT 10SM CLR 08/08 A2988 RMK AO2 T00780078
KAXH 140855Z AUTO 00000KT 10SM CLR 07/07 A2987 RMK AO2 T00710071
KAXH 140955Z AUTO 00000KT 2SM BR CLR 05/05 A2987 RMK AO2 VIS 3/4V5 T00540054
KAXH 141055Z AUTO 00000KT 10SM CLR 06/06 A2986 RMK AO2 T00580058
KAXH 141155Z AUTO 00000KT 7SM CLR 05/05 A2987 RMK AO2 T00490049 10091 20049
KAXH 141255Z AUTO 00000KT 7SM CLR 05/05 A2989 RMK AO2 T00520052



Page loaded:  13:39 UTC  |   05:39 AM Pacific  |   06:39 AM Mountain  |   07:39 AM Central  |   08:39 AM Eastern

 

ADVISORIES

FORECASTS

FORECASTS

OBSERVATIONS

USER TOOLS

ABOUT US